Time;durP1;ratioP1;P1;durP2;ratioP2;P2;SDS_P1;SDS_P2;PMS_P1;PMS_P2;Temp;Humidity;BMP_temperature;BMP_pressure;BME280_temperature;BME280_humidity;BME280_pressure;Samples;Min_cycle;Max_cycle;Signal;HPM_P1;HPM_P2
2021/03/29 00:01:49;;;;;;;3.42;1.52;;;12.00;84.00;;;;;;4980271;28;20520;-77
2021/03/29 00:04:15;;;;;;;5.03;1.83;;;12.00;83.70;;;;;;4972341;28;20041;-77
2021/03/29 00:06:43;;;;;;;4.00;1.42;;;12.00;83.40;;;;;;4984968;28;20031;-77
2021/03/29 00:09:09;;;;;;;5.63;1.60;;;12.00;83.90;;;;;;4980053;28;20058;-77
2021/03/29 00:11:36;;;;;;;5.97;1.75;;;12.00;83.50;;;;;;4980469;28;20481;-76
2021/03/29 00:14:03;;;;;;;5.10;1.75;;;12.00;83.70;;;;;;4973345;28;20559;-77
2021/03/29 00:16:31;;;;;;;5.95;1.92;;;12.00;84.10;;;;;;4970186;28;20041;-77
2021/03/29 00:18:56;;;;;;;5.13;1.60;;;12.00;84.20;;;;;;4981702;28;20038;-77
2021/03/29 00:21:22;;;;;;;7.45;1.65;;;12.10;84.00;;;;;;4982327;28;20105;-77
2021/03/29 00:23:48;;;;;;;6.18;1.60;;;12.00;84.20;;;;;;4974993;28;20104;-77
2021/03/29 00:26:14;;;;;;;5.53;1.55;;;12.00;84.20;;;;;;4977869;28;20089;-77
2021/03/29 00:28:40;;;;;;;5.15;1.30;;;12.00;84.40;;;;;;4978626;28;20776;-77
2021/03/29 00:31:08;;;;;;;3.10;1.58;;;12.00;84.20;;;;;;4978758;28;20029;-77
2021/03/29 00:33:36;;;;;;;3.13;1.48;;;12.00;84.70;;;;;;4972622;28;20450;-77
2021/03/29 00:36:02;;;;;;;2.70;1.30;;;12.00;84.20;;;;;;4980412;28;20432;-77
2021/03/29 00:38:28;;;;;;;4.97;1.63;;;12.00;84.10;;;;;;4981689;28;20480;-77
2021/03/29 00:40:58;;;;;;;4.45;1.48;;;12.00;84.30;;;;;;4977538;28;20114;-76
2021/03/29 00:43:27;;;;;;;7.82;1.85;;;12.00;83.80;;;;;;4976930;28;20096;-77
2021/03/29 00:45:54;;;;;;;3.65;1.80;;;12.00;84.20;;;;;;4986149;28;20109;-77
2021/03/29 00:48:22;;;;;;;5.95;2.38;;;12.00;84.70;;;;;;4979880;28;20026;-77
2021/03/29 00:51:03;;;;;;;3.70;1.40;;;12.00;84.30;;;;;;4972582;28;20030;-77
2021/03/29 00:53:30;;;;;;;6.28;1.30;;;12.00;84.00;;;;;;4972063;28;20050;-77
2021/03/29 00:55:56;;;;;;;7.35;2.08;;;12.00;85.40;;;;;;4980079;28;20030;-77
2021/03/29 00:58:25;;;;;;;6.85;1.50;;;12.00;84.70;;;;;;4968401;28;20537;-77
2021/03/29 01:00:56;;;;;;;10.20;2.08;;;12.00;84.50;;;;;;4985112;28;20034;-77
2021/03/29 01:03:26;;;;;;;;;;;12.00;84.50;;;;;;4984485;28;20033;-77
2021/03/29 01:05:59;;;;;;;3.03;1.27;;;12.00;84.70;;;;;;4970922;28;19914;-77
2021/03/29 01:08:25;;;;;;;5.15;1.52;;;12.00;84.70;;;;;;4974155;28;20041;-77
2021/03/29 01:10:52;;;;;;;4.57;1.80;;;12.00;84.20;;;;;;4969861;28;20548;-77
2021/03/29 01:13:19;;;;;;;8.43;1.88;;;12.00;84.80;;;;;;4973953;28;20070;-78
2021/03/29 01:15:47;;;;;;;3.17;1.35;;;12.00;84.20;;;;;;4974158;28;20130;-77
2021/03/29 01:18:16;;;;;;;4.07;1.38;;;12.10;84.20;;;;;;4982705;28;20049;-77
2021/03/29 01:21:08;;;;;;;4.18;1.70;;;12.10;83.80;;;;;;4978437;28;20044;-77
2021/03/29 01:23:35;;;;;;;6.47;1.40;;;12.00;84.00;;;;;;4974618;28;20025;-77
2021/03/29 01:26:26;;;;;;;7.28;1.50;;;12.00;84.10;;;;;;4981351;28;20104;-77
2021/03/29 01:28:52;;;;;;;3.38;1.27;;;12.00;84.00;;;;;;4979897;28;20023;-77
2021/03/29 01:31:18;;;;;;;3.13;1.48;;;12.00;83.90;;;;;;4980090;28;20034;-76
2021/03/29 01:33:44;;;;;;;7.28;1.63;;;12.00;84.10;;;;;;4981431;28;20109;-77
2021/03/29 01:36:11;;;;;;;3.50;1.40;;;12.00;84.30;;;;;;4975112;28;20034;-77
2021/03/29 01:38:37;;;;;;;4.40;1.65;;;12.00;84.60;;;;;;4980400;28;20030;-76
2021/03/29 01:41:03;;;;;;;2.45;1.35;;;12.00;84.70;;;;;;4980386;28;20034;-76
2021/03/29 01:43:29;;;;;;;3.63;1.20;;;12.00;85.00;;;;;;4970876;28;20097;-77
2021/03/29 01:45:57;;;;;;;1.52;1.02;;;12.10;85.00;;;;;;4986567;28;20044;-77
2021/03/29 01:48:24;;;;;;;5.93;1.45;;;12.00;85.10;;;;;;4971411;28;20409;-77
2021/03/29 01:50:53;;;;;;;5.43;1.77;;;12.00;85.30;;;;;;4972101;28;20101;-76
2021/03/29 01:53:22;;;;;;;4.68;1.50;;;12.00;85.10;;;;;;4974854;28;20319;-77
2021/03/29 01:55:48;;;;;;;2.08;1.42;;;12.00;85.60;;;;;;4980282;28;20698;-77
2021/03/29 01:58:13;;;;;;;8.98;1.42;;;12.00;85.30;;;;;;4975783;28;20027;-76
2021/03/29 02:00:43;;;;;;;4.38;1.48;;;12.00;85.30;;;;;;4982445;28;20473;-77
2021/03/29 02:03:11;;;;;;;3.25;1.67;;;12.00;85.60;;;;;;4964771;28;20068;-77
2021/03/29 02:05:38;;;;;;;3.72;1.40;;;12.10;85.50;;;;;;4970245;28;20034;-77
2021/03/29 02:08:05;;;;;;;4.60;1.52;;;12.00;86.00;;;;;;4967586;28;20069;-76
2021/03/29 02:10:33;;;;;;;3.60;1.50;;;12.00;85.30;;;;;;4981326;28;20030;-77
2021/03/29 02:13:10;;;;;;;5.30;1.52;;;12.00;85.50;;;;;;4974719;28;20027;-77
2021/03/29 02:15:36;;;;;;;4.53;1.73;;;12.00;85.60;;;;;;4976605;28;20066;-77
2021/03/29 02:18:09;;;;;;;7.80;1.60;;;12.00;85.60;;;;;;4972326;28;20108;-77
2021/03/29 02:20:37;;;;;;;6.35;1.67;;;11.90;85.80;;;;;;4976001;28;20046;-76
2021/03/29 02:23:06;;;;;;;4.25;1.52;;;11.90;85.80;;;;;;4981085;28;20058;-77
2021/03/29 02:25:32;;;;;;;3.17;1.52;;;11.90;85.90;;;;;;4981788;28;20026;-77
2021/03/29 02:28:04;;;;;;;4.45;1.30;;;11.90;86.20;;;;;;4975428;28;20429;-76
2021/03/29 02:30:38;;;;;;;5.68;1.45;;;11.90;86.60;;;;;;4976494;28;20045;-77
2021/03/29 02:33:08;;;;;;;2.40;1.10;;;11.80;86.70;;;;;;4965639;28;20046;-77
2021/03/29 02:35:34;;;;;;;5.10;1.95;;;11.80;86.70;;;;;;4962860;28;20043;-76
2021/03/29 02:38:01;;;;;;;2.53;1.25;;;11.80;86.80;;;;;;4957102;28;20031;-77
2021/03/29 02:40:28;;;;;;;3.67;1.38;;;11.80;87.10;;;;;;4955618;28;20031;-77
2021/03/29 02:42:56;;;;;;;4.28;1.83;;;11.80;86.90;;;;;;4960194;28;20404;-77
2021/03/29 02:45:34;;;;;;;3.25;1.35;;;11.90;87.20;;;;;;4959510;28;20027;-77
2021/03/29 02:48:06;;;;;;;4.55;1.40;;;11.90;87.00;;;;;;4953790;28;20035;-77
2021/03/29 02:50:32;;;;;;;4.00;1.88;;;11.90;87.40;;;;;;4965418;28;20034;-77
2021/03/29 02:53:01;;;;;;;5.35;1.52;;;11.80;87.20;;;;;;4963177;28;20019;-77
2021/03/29 02:55:28;;;;;;;5.03;1.40;;;11.90;87.40;;;;;;4957172;28;20027;-77
2021/03/29 02:57:57;;;;;;;4.25;1.23;;;11.80;87.50;;;;;;4960787;28;20035;-77
2021/03/29 03:00:25;;;;;;;7.00;1.85;;;11.80;87.80;;;;;;4955001;28;20078;-76
2021/03/29 03:02:54;;;;;;;4.75;1.63;;;11.80;88.10;;;;;;4961042;28;20109;-77
2021/03/29 03:05:22;;;;;;;4.93;1.65;;;11.80;88.20;;;;;;4962274;28;20027;-76
2021/03/29 03:07:50;;;;;;;3.58;1.98;;;11.80;88.50;;;;;;4961533;28;20877;-77
2021/03/29 03:10:17;;;;;;;5.32;1.88;;;11.70;88.60;;;;;;4953027;28;20517;-77
2021/03/29 03:12:44;;;;;;;6.65;2.15;;;11.70;88.40;;;;;;4944421;28;20074;-77
2021/03/29 03:15:26;;;;;;;3.30;1.63;;;11.80;88.50;;;;;;4957774;28;20034;-76
2021/03/29 03:17:53;;;;;;;2.70;1.50;;;11.80;89.10;;;;;;4962597;28;20049;-77
2021/03/29 03:20:19;;;;;;;5.32;1.27;;;11.80;88.90;;;;;;4952999;28;20031;-77
2021/03/29 03:22:55;;;;;;;2.13;1.30;;;11.80;89.30;;;;;;4949439;28;20042;-77
2021/03/29 03:25:30;;;;;;;6.32;1.70;;;11.70;89.00;;;;;;4950459;28;20038;-77
2021/03/29 03:27:58;;;;;;;4.13;1.60;;;11.70;88.90;;;;;;4954122;28;20426;-77
2021/03/29 03:30:27;;;;;;;5.97;1.60;;;11.80;89.40;;;;;;4965654;28;20073;-77
2021/03/29 03:32:53;;;;;;;3.92;1.42;;;11.70;89.40;;;;;;4967572;28;20435;-76
2021/03/29 03:35:22;;;;;;;5.80;1.55;;;11.70;89.40;;;;;;4980629;28;20118;-76
2021/03/29 03:37:57;;;;;;;4.63;1.50;;;11.70;89.70;;;;;;4981754;28;20085;-77
2021/03/29 03:40:24;;;;;;;6.80;1.70;;;11.70;89.50;;;;;;4979231;28;20153;-77
2021/03/29 03:42:51;;;;;;;6.72;1.30;;;11.70;89.70;;;;;;4977618;28;20172;-77
2021/03/29 03:45:22;;;;;;;7.93;1.80;;;11.70;89.20;;;;;;4980146;28;20042;-77
2021/03/29 03:47:48;;;;;;;6.80;1.60;;;11.70;89.60;;;;;;4985259;28;20042;-77
2021/03/29 03:50:14;;;;;;;3.10;1.45;;;11.70;89.40;;;;;;4981967;28;20034;-77
2021/03/29 03:52:41;;;;;;;5.25;1.25;;;11.70;89.60;;;;;;4978750;28;20022;-77
2021/03/29 03:55:14;;;;;;;5.90;1.50;;;11.70;89.40;;;;;;4966735;28;20022;-77
2021/03/29 03:57:41;;;;;;;4.50;1.83;;;11.70;89.40;;;;;;4981194;28;20027;-77
2021/03/29 04:00:10;;;;;;;4.65;1.63;;;11.70;89.90;;;;;;4976599;28;20105;-77
2021/03/29 04:02:35;;;;;;;2.60;1.40;;;11.70;89.50;;;;;;4973043;28;20026;-76
2021/03/29 04:05:03;;;;;;;4.00;1.40;;;11.70;89.20;;;;;;4986119;28;20022;-77
2021/03/29 04:07:29;;;;;;;4.00;1.95;;;11.70;89.10;;;;;;4973947;28;20194;-77
2021/03/29 04:09:59;;;;;;;4.68;1.67;;;11.70;89.40;;;;;;4981550;28;20073;-77
2021/03/29 04:12:25;;;;;;;6.78;1.50;;;11.60;89.40;;;;;;4977469;28;20500;-77
2021/03/29 04:14:50;;;;;;;4.03;1.70;;;11.60;89.70;;;;;;4983321;28;20022;-76
2021/03/29 04:17:16;;;;;;;7.93;1.77;;;11.60;89.50;;;;;;4981515;28;20105;-77
2021/03/29 04:19:41;;;;;;;4.38;1.73;;;11.60;89.30;;;;;;4982581;28;20114;-77
2021/03/29 04:22:07;;;;;;;3.97;1.90;;;11.60;89.30;;;;;;4978534;28;20034;-77
2021/03/29 04:24:33;;;;;;;6.75;1.90;;;11.60;89.30;;;;;;4970914;28;20034;-77
2021/03/29 04:26:58;;;;;;;5.25;2.20;;;11.60;89.80;;;;;;4964635;28;20034;-77
2021/03/29 04:29:26;;;;;;;5.63;2.13;;;11.60;89.90;;;;;;4958794;28;20073;-76
2021/03/29 04:31:53;;;;;;;4.40;1.80;;;11.60;89.80;;;;;;4984224;28;20022;-76
2021/03/29 04:34:18;;;;;;;6.80;2.05;;;11.50;89.60;;;;;;4977625;28;20042;-76
2021/03/29 04:36:44;;;;;;;6.43;1.50;;;11.60;90.20;;;;;;4972420;28;20026;-77
2021/03/29 04:39:09;;;;;;;11.00;1.65;;;11.60;89.70;;;;;;4975226;28;20126;-77
2021/03/29 04:41:35;;;;;;;3.60;1.70;;;11.60;89.10;;;;;;4979581;28;20034;-77
2021/03/29 04:44:00;;;;;;;8.13;1.90;;;11.60;89.20;;;;;;4977746;28;20130;-77
2021/03/29 04:46:26;;;;;;;7.78;2.10;;;11.60;89.00;;;;;;4974426;28;20034;-77
2021/03/29 04:48:52;;;;;;;4.93;1.77;;;11.60;88.60;;;;;;4977236;28;20022;-77
2021/03/29 04:51:17;;;;;;;5.50;1.85;;;11.60;88.60;;;;;;4971228;28;20460;-77
2021/03/29 04:53:43;;;;;;;5.35;2.03;;;11.60;88.40;;;;;;4978853;28;20061;-76
2021/03/29 04:56:08;;;;;;;9.27;2.40;;;11.70;88.20;;;;;;4979384;28;20041;-77
2021/03/29 04:58:34;;;;;;;5.40;2.05;;;11.60;87.80;;;;;;4969883;28;20472;-77
2021/03/29 05:00:59;;;;;;;4.20;1.63;;;11.70;87.80;;;;;;4978528;28;20030;-77
2021/03/29 05:03:25;;;;;;;8.40;2.22;;;11.70;88.10;;;;;;4984154;28;20046;-77
2021/03/29 05:05:50;;;;;;;10.82;1.77;;;11.60;87.60;;;;;;4981512;28;20120;-76
2021/03/29 05:08:16;;;;;;;5.10;2.10;;;11.60;87.80;;;;;;4973934;28;20387;-77
2021/03/29 05:10:42;;;;;;;5.38;1.95;;;11.60;87.20;;;;;;4982234;28;20023;-77
2021/03/29 05:13:08;;;;;;;3.05;2.03;;;11.60;87.70;;;;;;4974122;28;20046;-76
2021/03/29 05:15:33;;;;;;;7.90;1.80;;;11.60;87.60;;;;;;4973941;28;20075;-76
2021/03/29 05:17:59;;;;;;;10.55;2.00;;;11.60;87.50;;;;;;4962779;28;20084;-77
2021/03/29 05:20:24;;;;;;;4.80;1.73;;;11.60;88.00;;;;;;4982202;28;20949;-77
2021/03/29 05:22:50;;;;;;;5.63;1.52;;;11.60;87.40;;;;;;4974861;28;20041;-76
2021/03/29 05:25:16;;;;;;;11.15;2.25;;;11.70;86.80;;;;;;4974885;28;20103;-77
2021/03/29 05:27:41;;;;;;;2.85;1.65;;;11.70;86.70;;;;;;4982495;28;20393;-76
2021/03/29 05:30:08;;;;;;;10.32;2.13;;;11.70;86.20;;;;;;4983082;28;20034;-77
2021/03/29 05:32:34;;;;;;;6.72;2.13;;;11.80;85.70;;;;;;4972372;28;20545;-77
2021/03/29 05:35:02;;;;;;;2.85;1.70;;;11.80;85.70;;;;;;4973610;28;20031;-76
2021/03/29 05:37:29;;;;;;;4.85;2.17;;;11.80;85.60;;;;;;4967767;28;20054;-76
2021/03/29 05:39:57;;;;;;;6.18;2.00;;;11.90;85.50;;;;;;4968443;28;20027;-76
2021/03/29 05:42:24;;;;;;;7.95;2.40;;;11.90;84.80;;;;;;4980241;28;20035;-76
2021/03/29 05:44:53;;;;;;;6.15;2.30;;;11.80;85.00;;;;;;4980487;28;20670;-75
2021/03/29 05:47:18;;;;;;;5.70;2.20;;;11.90;84.80;;;;;;4974619;28;20113;-76
2021/03/29 05:49:44;;;;;;;4.95;2.10;;;11.90;84.50;;;;;;4981319;28;20545;-76
2021/03/29 05:52:11;;;;;;;4.93;2.08;;;11.90;84.50;;;;;;4977026;28;20022;-76
2021/03/29 05:54:38;;;;;;;4.75;2.33;;;12.00;84.60;;;;;;4982709;28;20501;-76
2021/03/29 05:57:04;;;;;;;4.40;1.95;;;12.00;84.90;;;;;;4980984;28;20553;-76
2021/03/29 06:01:58;;;;;;;3.90;1.80;;;12.00;84.30;;;;;;4973493;28;20482;-77
2021/03/29 06:04:47;;;;;;;7.88;2.00;;;12.10;84.40;;;;;;4974465;28;20041;-76
2021/03/29 06:07:14;;;;;;;6.38;2.45;;;12.00;84.20;;;;;;4961815;28;20112;-76
2021/03/29 06:09:40;;;;;;;9.68;2.42;;;12.10;84.40;;;;;;4981141;28;20055;-75
2021/03/29 06:12:06;;;;;;;14.25;3.17;;;12.10;84.60;;;;;;4974224;28;20490;-76
2021/03/29 06:14:34;;;;;;;9.38;2.83;;;12.10;84.90;;;;;;4975139;28;20029;-76
2021/03/29 06:17:05;;;;;;;5.47;2.08;;;12.10;84.80;;;;;;4980891;28;20057;-76
2021/03/29 06:19:40;;;;;;;7.90;2.08;;;12.20;85.10;;;;;;4975708;28;20516;-76
2021/03/29 06:22:25;;;;;;;10.05;2.28;;;12.20;84.70;;;;;;4983616;28;20026;-76
2021/03/29 06:25:06;;;;;;;6.32;2.17;;;12.30;83.90;;;;;;4983296;28;20030;-76
2021/03/29 06:27:56;;;;;;;6.63;2.42;;;12.30;83.70;;;;;;4985855;28;20096;-76
2021/03/29 06:30:33;;;;;;;8.32;2.50;;;12.40;83.10;;;;;;4982062;28;20027;-76
2021/03/29 06:33:04;;;;;;;6.50;2.42;;;12.50;83.20;;;;;;4983577;28;20532;-76
2021/03/29 06:36:05;;;;;;;8.48;2.83;;;12.40;82.30;;;;;;4976078;28;20030;-76
2021/03/29 06:38:36;;;;;;;10.20;2.47;;;12.50;81.80;;;;;;4895829;29;20024;-76
2021/03/29 06:41:04;;;;;;;7.43;2.00;;;12.50;81.30;;;;;;4962154;28;20404;-76
2021/03/29 06:43:32;;;;;;;10.00;2.30;;;12.50;81.40;;;;;;4977301;28;20026;-76
2021/03/29 06:46:23;;;;;;;5.50;2.20;;;12.60;80.90;;;;;;4975007;28;20018;-76
2021/03/29 06:48:49;;;;;;;6.03;2.13;;;12.60;80.60;;;;;;4975514;28;20512;-77
2021/03/29 06:51:24;;;;;;;9.25;2.47;;;12.60;80.50;;;;;;4985605;28;20030;-77
2021/03/29 06:54:04;;;;;;;7.63;2.55;;;12.70;80.00;;;;;;4986757;28;20030;-78
2021/03/29 06:57:45;;;;;;;7.55;2.50;;;12.70;79.60;;;;;;4979141;28;20132;-78
2021/03/29 07:00:14;;;;;;;8.02;2.20;;;12.80;79.70;;;;;;4964595;28;20062;-78
2021/03/29 07:02:46;;;;;;;5.60;1.80;;;12.80;79.20;;;;;;4989465;28;20030;-78
2021/03/29 07:05:12;;;;;;;3.70;2.28;;;12.90;78.60;;;;;;4979329;28;20038;-77
2021/03/29 07:07:39;;;;;;;11.32;2.65;;;12.80;77.90;;;;;;4978035;28;20026;-78
2021/03/29 07:10:10;;;;;;;17.55;2.65;;;12.80;78.30;;;;;;4984253;28;20396;-78
2021/03/29 07:12:40;;;;;;;7.07;2.92;;;12.90;78.30;;;;;;4978996;28;20031;-78
2021/03/29 07:15:09;;;;;;;8.38;2.78;;;12.90;78.70;;;;;;4986433;28;20501;-77
2021/03/29 07:17:40;;;;;;;6.95;2.40;;;12.80;78.00;;;;;;4984858;28;20396;-78
2021/03/29 07:20:14;;;;;;;7.53;2.85;;;12.90;78.20;;;;;;4973808;28;20034;-78
2021/03/29 07:22:44;;;;;;;7.28;1.98;;;12.90;78.80;;;;;;4981684;28;20035;-78
2021/03/29 07:25:15;;;;;;;8.55;2.60;;;12.90;78.50;;;;;;4984112;28;20026;-78
2021/03/29 07:27:48;;;;;;;8.13;2.67;;;13.00;78.30;;;;;;4985811;28;20084;-78
2021/03/29 07:30:15;;;;;;;10.73;2.85;;;13.00;78.60;;;;;;4976645;28;20050;-78
2021/03/29 07:32:51;;;;;;;6.43;2.58;;;13.10;78.90;;;;;;4976094;28;20054;-78
2021/03/29 07:35:19;;;;;;;6.45;2.60;;;13.10;77.70;;;;;;4980789;28;20029;-78
2021/03/29 07:37:57;;;;;;;9.20;2.60;;;13.20;77.20;;;;;;4985389;28;20033;-79
2021/03/29 07:40:36;;;;;;;5.50;2.30;;;13.20;76.70;;;;;;4979938;28;20436;-78
2021/03/29 07:43:14;;;;;;;10.65;2.53;;;13.20;77.60;;;;;;4983663;28;20050;-77
2021/03/29 07:45:46;;;;;;;8.20;2.35;;;13.30;76.70;;;;;;4971453;28;20039;-75
2021/03/29 07:48:30;;;;;;;7.47;2.15;;;13.30;76.60;;;;;;4969562;28;20027;-75
2021/03/29 07:50:56;;;;;;;5.43;2.03;;;13.40;76.40;;;;;;4981933;28;20038;-76
2021/03/29 07:53:38;;;;;;;5.25;1.90;;;13.50;76.30;;;;;;4975405;28;20023;-79
2021/03/29 07:56:04;;;;;;;4.65;1.95;;;13.50;74.70;;;;;;4977596;28;20034;-75
2021/03/29 07:58:30;;;;;;;6.40;2.10;;;13.60;75.00;;;;;;4971732;28;20502;-75
2021/03/29 08:00:56;;;;;;;7.43;1.73;;;13.70;73.40;;;;;;4962762;28;20030;-75
2021/03/29 08:03:22;;;;;;;4.05;1.85;;;13.70;73.50;;;;;;4985085;28;20030;-75
2021/03/29 08:05:52;;;;;;;6.78;2.30;;;13.80;73.80;;;;;;4971989;28;20030;-76
2021/03/29 08:08:23;;;;;;;7.43;2.72;;;13.80;72.50;;;;;;4980586;28;20030;-75
2021/03/29 08:11:14;;;;;;;6.85;2.10;;;13.90;72.60;;;;;;4977980;28;20059;-75
2021/03/29 08:13:44;;;;;;;7.95;2.30;;;13.90;71.50;;;;;;4985470;28;20045;-76
2021/03/29 08:16:15;;;;;;;6.20;2.00;;;14.10;72.00;;;;;;4970848;28;20057;-75
2021/03/29 08:19:15;;;;;;;6.20;2.10;;;14.10;71.40;;;;;;4970170;28;20026;-77
2021/03/29 08:21:54;;;;;;;6.57;1.90;;;14.20;70.60;;;;;;4981332;28;20038;-74
2021/03/29 08:24:30;;;;;;;5.40;2.03;;;14.20;70.10;;;;;;4973817;28;20484;-74
2021/03/29 08:26:57;;;;;;;4.95;1.77;;;14.30;70.50;;;;;;4983173;28;20031;-73
2021/03/29 08:29:31;;;;;;;2.65;1.40;;;14.30;70.00;;;;;;4983449;28;20041;-76
2021/03/29 08:32:09;;;;;;;8.57;1.73;;;14.40;70.00;;;;;;4983772;28;20062;-76
2021/03/29 08:34:44;;;;;;;12.45;2.33;;;14.50;68.70;;;;;;4985877;28;20038;-76
2021/03/29 08:37:12;;;;;;;6.25;2.03;;;14.40;69.60;;;;;;4978547;28;20117;-76
2021/03/29 08:39:40;;;;;;;6.25;1.83;;;14.40;68.60;;;;;;4977277;28;20042;-76
2021/03/29 08:42:09;;;;;;;6.15;1.80;;;14.50;69.30;;;;;;4975220;28;20066;-77
2021/03/29 08:44:40;;;;;;;5.35;1.90;;;14.60;69.90;;;;;;4985266;28;20025;-75
2021/03/29 08:47:18;;;;;;;6.03;1.58;;;14.60;69.00;;;;;;4982239;28;20553;-76
2021/03/29 08:49:48;;;;;;;6.82;1.88;;;14.70;69.00;;;;;;4982731;28;20046;-77
2021/03/29 08:52:13;;;;;;;6.30;2.10;;;14.70;68.80;;;;;;4980209;28;20030;-76
2021/03/29 08:54:57;;;;;;;10.60;2.20;;;14.70;68.70;;;;;;4973472;28;20129;-76
2021/03/29 08:57:25;;;;;;;5.93;2.13;;;14.70;70.60;;;;;;4973954;28;20131;-77
2021/03/29 08:59:53;;;;;;;6.78;1.65;;;14.70;71.80;;;;;;4974739;28;20045;-77
2021/03/29 09:02:19;;;;;;;5.40;1.77;;;14.70;72.00;;;;;;4974373;28;20072;-76
2021/03/29 09:04:55;;;;;;;9.77;1.95;;;14.70;70.80;;;;;;4970068;28;20572;-76
2021/03/29 09:07:27;;;;;;;7.45;1.73;;;14.70;70.50;;;;;;4971020;28;20509;-78
2021/03/29 09:09:54;;;;;;;7.03;1.80;;;14.80;70.20;;;;;;4977278;28;20049;-77
2021/03/29 09:12:28;;;;;;;8.48;1.80;;;14.90;70.30;;;;;;4975484;28;20034;-76
2021/03/29 09:14:54;;;;;;;7.13;2.50;;;15.00;69.40;;;;;;4971804;28;20396;-77
2021/03/29 09:17:24;;;;;;;3.10;1.60;;;15.10;69.00;;;;;;4973926;28;20049;-76
2021/03/29 09:19:50;;;;;;;3.70;1.38;;;15.20;68.60;;;;;;4974216;28;20142;-77
2021/03/29 09:22:27;;;;;;;7.90;1.98;;;15.20;68.20;;;;;;4977795;28;20642;-79
2021/03/29 09:24:53;;;;;;;6.60;1.60;;;15.20;67.00;;;;;;4983137;28;20848;-76
2021/03/29 09:27:24;;;;;;;5.55;1.55;;;15.30;67.30;;;;;;4979572;28;20101;-76
2021/03/29 09:29:49;;;;;;;5.72;1.70;;;15.20;67.30;;;;;;4973406;28;20082;-77
2021/03/29 09:32:21;;;;;;;3.72;1.40;;;15.30;67.20;;;;;;4969710;28;20125;-77
2021/03/29 09:34:49;;;;;;;6.00;1.67;;;15.40;67.10;;;;;;4979563;28;20046;-77
2021/03/29 09:37:24;;;;;;;4.65;1.70;;;15.60;67.20;;;;;;4975117;28;20066;-77
2021/03/29 09:40:08;;;;;;;9.00;1.55;;;15.80;66.40;;;;;;4973592;28;20065;-73
2021/03/29 09:42:43;;;;;;;6.50;1.80;;;16.00;65.20;;;;;;4970865;28;20040;-74
2021/03/29 09:45:11;;;;;;;5.03;1.75;;;16.10;63.80;;;;;;4978414;28;20572;-74
2021/03/29 09:47:38;;;;;;;4.63;2.00;;;16.20;63.40;;;;;;4976076;28;20066;-73
2021/03/29 09:50:07;;;;;;;9.02;1.90;;;16.20;62.80;;;;;;4975318;28;20035;-74
2021/03/29 09:52:40;;;;;;;3.65;1.33;;;16.30;62.70;;;;;;4973076;28;20022;-74
2021/03/29 09:55:07;;;;;;;7.60;1.98;;;16.30;61.70;;;;;;4978501;28;20490;-75
2021/03/29 09:57:38;;;;;;;5.97;1.42;;;16.40;62.30;;;;;;4979270;28;20092;-74
2021/03/29 10:00:18;;;;;;;5.88;1.42;;;16.40;62.00;;;;;;4975526;28;20413;-74
2021/03/29 10:02:45;;;;;;;6.10;1.55;;;16.40;61.20;;;;;;4974272;28;20061;-75
2021/03/29 10:05:12;;;;;;;4.18;1.55;;;16.40;60.80;;;;;;4975921;28;20042;-74
2021/03/29 10:07:52;;;;;;;6.22;1.70;;;16.40;60.50;;;;;;4978829;28;20124;-74
2021/03/29 10:10:29;;;;;;;6.07;1.70;;;16.30;61.20;;;;;;4975015;28;20041;-74
2021/03/29 10:13:05;;;;;;;4.07;1.48;;;16.30;61.10;;;;;;4976253;28;20039;-74
2021/03/29 10:15:35;;;;;;;5.60;1.52;;;16.40;60.50;;;;;;4976607;28;20026;-74
2021/03/29 10:18:14;;;;;;;6.82;1.98;;;16.50;60.20;;;;;;4973579;28;20117;-74
2021/03/29 10:20:45;;;;;;;6.03;1.92;;;16.50;59.80;;;;;;4978765;28;20065;-75
2021/03/29 10:23:43;;;;;;;5.77;1.83;;;16.60;60.20;;;;;;4979247;28;20069;-75
2021/03/29 10:26:20;;;;;;;5.47;1.80;;;16.70;59.70;;;;;;4959622;28;20348;-76
2021/03/29 10:29:00;;;;;;;3.65;1.52;;;16.80;59.90;;;;;;4971005;28;20035;-75
2021/03/29 10:31:27;;;;;;;8.73;1.77;;;16.80;59.50;;;;;;4975437;28;20030;-75
2021/03/29 10:33:53;;;;;;;6.25;1.40;;;16.80;58.70;;;;;;4980799;28;20034;-75
2021/03/29 10:36:20;;;;;;;3.35;1.25;;;16.80;59.00;;;;;;4975968;28;20668;-75
2021/03/29 10:38:47;;;;;;;8.43;1.65;;;16.60;58.80;;;;;;4975424;28;20474;-76
2021/03/29 10:41:12;;;;;;;4.90;1.42;;;16.50;59.40;;;;;;4976222;28;20030;-75
2021/03/29 10:43:39;;;;;;;4.10;1.45;;;16.40;59.50;;;;;;4977305;28;20037;-75
2021/03/29 10:46:05;;;;;;;4.72;1.33;;;16.30;62.20;;;;;;4977225;28;20027;-73
2021/03/29 10:48:31;;;;;;;5.18;1.42;;;16.20;61.90;;;;;;4982268;28;20513;-75
2021/03/29 10:50:57;;;;;;;4.22;1.40;;;16.10;63.30;;;;;;4981241;28;20096;-76
2021/03/29 10:53:24;;;;;;;3.28;1.70;;;16.10;68.00;;;;;;4978087;28;20042;-75
2021/03/29 10:55:49;;;;;;;8.73;1.83;;;16.00;70.90;;;;;;4978558;28;20073;-75
2021/03/29 10:58:15;;;;;;;3.80;1.40;;;16.00;69.60;;;;;;4978937;28;20433;-76
2021/03/29 11:00:40;;;;;;;6.45;1.75;;;16.00;70.00;;;;;;4980638;28;20037;-75
2021/03/29 11:03:06;;;;;;;4.55;1.35;;;16.10;67.20;;;;;;4977356;28;20038;-76
2021/03/29 11:05:31;;;;;;;4.32;1.30;;;16.20;66.40;;;;;;4979098;28;20081;-75
2021/03/29 11:07:58;;;;;;;2.55;1.67;;;16.20;65.50;;;;;;4978232;28;20041;-76
2021/03/29 11:10:24;;;;;;;6.38;1.40;;;16.30;64.90;;;;;;4983541;28;20026;-76
2021/03/29 11:12:49;;;;;;;4.03;1.48;;;16.40;63.70;;;;;;4981917;28;20034;-75
2021/03/29 11:15:15;;;;;;;3.90;1.40;;;16.40;62.50;;;;;;4978765;28;20038;-75
2021/03/29 11:17:41;;;;;;;4.93;1.58;;;16.40;63.90;;;;;;4975591;28;20038;-76
2021/03/29 11:20:07;;;;;;;3.15;1.45;;;16.50;62.30;;;;;;4977966;28;20113;-75
2021/03/29 11:22:33;;;;;;;2.97;1.20;;;16.50;62.10;;;;;;4978953;28;20118;-75
2021/03/29 11:24:59;;;;;;;8.38;1.67;;;16.40;62.00;;;;;;4980102;28;20137;-75
2021/03/29 11:27:25;;;;;;;2.90;1.35;;;16.40;62.70;;;;;;4968760;28;20042;-75
2021/03/29 11:29:51;;;;;;;4.90;1.40;;;16.30;61.20;;;;;;4976517;28;20034;-74
2021/03/29 11:32:17;;;;;;;4.30;1.38;;;16.30;60.60;;;;;;4969843;28;20038;-75
2021/03/29 11:34:42;;;;;;;6.45;2.28;;;16.30;60.80;;;;;;4949562;28;20517;-78
2021/03/29 11:37:08;;;;;;;6.55;1.30;;;16.30;60.60;;;;;;4954733;28;20060;-75
2021/03/29 11:39:33;;;;;;;4.00;1.40;;;16.30;60.70;;;;;;4960062;28;20115;-75
2021/03/29 11:41:59;;;;;;;3.38;1.30;;;16.30;60.60;;;;;;4965783;28;20042;-75
2021/03/29 11:44:24;;;;;;;4.20;1.58;;;16.50;60.80;;;;;;4962555;28;20031;-76
2021/03/29 11:46:52;;;;;;;6.85;1.45;;;16.80;60.40;;;;;;4962253;28;20731;-77
2021/03/29 11:49:17;;;;;;;3.35;1.60;;;17.00;59.50;;;;;;4962450;28;20616;-75
2021/03/29 11:51:43;;;;;;;7.22;1.92;;;17.20;58.40;;;;;;4963170;28;20118;-76
2021/03/29 11:54:09;;;;;;;4.07;1.67;;;17.10;58.20;;;;;;4957770;28;20466;-75
2021/03/29 11:56:38;;;;;;;7.35;1.92;;;17.10;57.50;;;;;;4957992;28;20031;-73
2021/03/29 11:59:08;;;;;;;5.47;1.70;;;17.20;57.60;;;;;;4961419;28;20538;-74
2021/03/29 12:01:43;;;;;;;7.95;1.70;;;17.40;57.90;;;;;;4961025;28;20035;-75
2021/03/29 12:07:01;;;;;;;11.38;1.75;;;17.70;56.30;;;;;;4969100;28;20157;-74
2021/03/29 12:12:12;;;;;;;4.03;1.67;;;17.70;56.90;;;;;;4972038;28;20094;-73
2021/03/29 12:14:39;;;;;;;6.43;1.70;;;17.70;56.50;;;;;;4971847;28;20116;-74
2021/03/29 12:17:07;;;;;;;3.28;1.52;;;17.70;56.80;;;;;;4971726;28;20093;-74
2021/03/29 12:19:39;;;;;;;5.22;1.90;;;17.70;57.30;;;;;;4971579;28;20023;-74
2021/03/29 12:22:12;;;;;;;11.32;2.20;;;18.00;56.20;;;;;;4971285;28;20079;-74
2021/03/29 12:24:41;;;;;;;7.45;1.67;;;18.90;54.90;;;;;;4966836;28;20551;-74
2021/03/29 12:27:07;;;;;;;7.70;1.67;;;20.10;52.60;;;;;;4957567;28;20070;-73
2021/03/29 12:29:40;;;;;;;3.58;2.22;;;21.00;50.30;;;;;;4952065;29;20027;-74
2021/03/29 12:32:18;;;;;;;4.50;1.70;;;21.50;48.60;;;;;;4961805;28;20622;-73
2021/03/29 12:34:55;;;;;;;3.95;1.90;;;22.00;47.40;;;;;;4970718;28;20122;-73
2021/03/29 12:37:31;;;;;;;3.78;1.90;;;22.20;46.70;;;;;;4971685;28;20026;-74
2021/03/29 12:40:04;;;;;;;7.45;2.40;;;22.80;46.10;;;;;;4971977;28;20026;-74
2021/03/29 12:42:34;;;;;;;6.97;2.33;;;22.50;45.50;;;;;;4971028;28;20568;-74
2021/03/29 12:44:59;;;;;;;12.77;2.40;;;22.90;46.00;;;;;;4970932;28;20038;-73
2021/03/29 12:47:26;;;;;;;6.97;2.13;;;23.00;45.00;;;;;;4970761;28;20122;-73
2021/03/29 12:49:53;;;;;;;7.05;2.20;;;22.50;46.00;;;;;;4969028;28;20379;-74
2021/03/29 12:52:18;;;;;;;8.18;2.20;;;22.10;47.00;;;;;;4971008;28;20106;-74
2021/03/29 12:54:45;;;;;;;6.70;2.20;;;21.90;46.60;;;;;;4970695;28;20114;-73
2021/03/29 12:57:11;;;;;;;5.88;2.33;;;21.60;47.10;;;;;;4971397;28;20073;-74
2021/03/29 12:59:37;;;;;;;6.70;3.10;;;22.10;46.90;;;;;;4970379;28;20034;-73
2021/03/29 13:02:03;;;;;;;7.32;2.53;;;22.70;46.30;;;;;;4970950;28;20125;-74
2021/03/29 13:04:38;;;;;;;6.35;2.42;;;23.20;46.50;;;;;;4971103;28;20026;-74
2021/03/29 13:07:25;;;;;;;8.40;1.95;;;23.60;43.90;;;;;;4970107;28;20477;-74